Main page


Airports :

Cayenne, French Guiana

Cayenne – Félix Eboué Airport

latitude: 04-50N, longitude: 052-22W, elevation: 105 m

Current weather observation

The report was made 19 minutes ago, at 17:30 UTC
Wind 13 kt from the East/Northeast
Temperature 31°C
Humidity 66%
Pressure 1010 hPa
Visibility 10 km or more

METAR: SOCA 201730Z AUTO 07013KT 9999 FEW027/// 31/24 Q1010 NOSIG

Time: 14:49 (17:49 UTC)


The report was made 1 hour and 49 minutes ago, at 16:00 UTC
Forecast valid from 20 at 18 UTC to 21 at 18 UTC
Wind 12 kt from the East
Visibility 10 km or more
Few clouds at a height of 2800 ft
from 20 at 22 UTC to 20 at 23 UTC
Wind 3 kt from variable directions
Probability 30% :
from 21 at 05 UTC to 21 at 14 UTC
Visibility: 3000 m
rain showers

TAF: SOCA 201600Z 2018/2118 09012KT 9999 FEW028 BECMG 2022/2023 VRB03KT PROB30 TEMPO 2105/2114 3000 SHRA

Weather observations and forecasts of more than 4000 airports (METAR and TAF reports).

The available stations are represented by yellow and red dots on the map.

Hover mouse over dot to see the name of the station.

Then click to see weather observations and forecasts.

To change the map : click on the green buttons with a black cross to zoom in, on the green button with a dash to zoom out, or on the green arrows for adjacent maps.